createdAt,value
2017-08-12T00:00:59.658Z,5.70
2017-08-12T00:03:27.142Z,5.80
2017-08-12T00:05:54.634Z,5.62
2017-08-12T00:17:04.962Z,6.12
2017-08-12T00:19:32.509Z,7.50
2017-08-12T00:22:00.039Z,5.40
2017-08-12T00:24:27.523Z,6.32
2017-08-12T00:26:55.039Z,7.53
2017-08-12T00:29:22.532Z,5.45
2017-08-12T00:31:50.035Z,6.03
2017-08-12T00:34:17.541Z,7.07
2017-08-12T00:36:45.064Z,5.62
2017-08-12T00:39:13.357Z,6.35
2017-08-12T00:41:40.838Z,7.22
2017-08-12T00:44:08.335Z,8.50
2017-08-12T00:46:35.832Z,5.97
2017-08-12T00:49:03.373Z,6.35
2017-08-12T00:51:31.092Z,8.75
2017-08-12T00:54:00.032Z,8.85
2017-08-12T00:56:28.492Z,7.43
2017-08-12T00:58:56.056Z,7.62
2017-08-12T01:01:23.583Z,8.15
2017-08-12T01:03:51.091Z,8.95
2017-08-12T01:06:18.642Z,9.57
2017-08-12T01:08:46.250Z,8.52
2017-08-12T01:11:13.762Z,11.77
2017-08-12T01:13:42.057Z,10.68
2017-08-12T01:16:09.565Z,10.40
2017-08-12T01:18:37.063Z,12.63
2017-08-12T01:21:04.565Z,8.85
2017-08-12T01:23:32.059Z,9.88
2017-08-12T01:25:59.571Z,7.85
2017-08-12T01:28:27.082Z,8.65
2017-08-12T01:30:55.376Z,6.82
2017-08-12T01:36:29.811Z,8.10
2017-08-12T01:38:57.569Z,9.45
2017-08-12T01:41:41.086Z,7.93
2017-08-12T01:47:03.034Z,21.08
2017-08-12T01:49:33.414Z,8.90
2017-08-12T01:52:01.041Z,8.10
2017-08-12T01:54:30.314Z,8.98
2017-08-12T01:56:58.044Z,7.95
2017-08-12T01:59:25.625Z,7.60
2017-08-12T02:01:53.301Z,7.47
2017-08-12T02:04:20.882Z,7.22
2017-08-12T02:06:48.406Z,6.72
2017-08-12T02:09:31.669Z,6.87
2017-08-12T02:12:00.156Z,6.62
2017-08-12T02:14:28.640Z,6.80
2017-08-12T02:16:56.197Z,7.78
2017-08-12T02:19:23.727Z,6.70
2017-08-12T02:21:51.315Z,6.00
2017-08-12T02:24:20.037Z,7.15
2017-08-12T02:26:49.679Z,7.45
2017-08-12T02:29:17.368Z,7.18
2017-08-12T02:31:44.883Z,7.10
2017-08-12T02:34:12.501Z,6.30
2017-08-12T02:36:40.031Z,6.35
2017-08-12T02:39:08.332Z,9.68
2017-08-12T02:41:35.869Z,9.02
2017-08-12T02:44:03.434Z,6.35
2017-08-12T02:46:30.984Z,6.53
2017-08-12T02:48:58.535Z,7.45
2017-08-12T02:51:26.805Z,7.10
2017-08-12T02:53:56.156Z,8.65
2017-08-12T02:56:23.698Z,9.35
2017-08-12T02:58:51.243Z,9.57
2017-08-12T03:01:19.603Z,9.25
2017-08-12T03:03:47.207Z,8.85
2017-08-12T03:06:14.755Z,10.00
2017-08-12T03:08:42.305Z,10.75
2017-08-12T03:11:09.926Z,11.95
2017-08-12T03:13:37.563Z,11.75
2017-08-12T03:16:05.153Z,11.35
2017-08-12T03:18:33.500Z,10.35
2017-08-12T03:21:01.072Z,11.20
2017-08-12T03:23:28.605Z,11.82
2017-08-12T03:26:12.852Z,13.30
2017-08-12T03:28:40.396Z,14.20
2017-08-12T03:31:07.928Z,11.23
2017-08-12T03:33:36.296Z,11.35
2017-08-12T03:36:03.825Z,14.30
2017-08-12T03:38:31.350Z,13.95
2017-08-12T03:40:58.866Z,13.48
2017-08-12T03:43:26.388Z,13.07
2017-08-12T03:45:55.992Z,13.57
2017-08-12T03:48:25.239Z,13.23
2017-08-12T03:50:52.754Z,12.45
2017-08-12T03:53:21.093Z,14.38
2017-08-12T03:55:49.347Z,15.60
2017-08-12T03:58:16.860Z,14.63
2017-08-12T04:00:44.543Z,11.20
2017-08-12T04:03:18.373Z,14.70
2017-08-12T04:05:46.134Z,15.25
2017-08-12T04:08:13.714Z,13.75
2017-08-12T04:10:41.233Z,16.45
2017-08-12T04:13:08.775Z,16.52
2017-08-12T04:15:36.773Z,14.20
2017-08-12T04:18:04.515Z,12.27
2017-08-12T04:20:33.226Z,12.63
2017-08-12T04:23:00.851Z,11.85
2017-08-12T04:25:29.139Z,13.80
2017-08-12T04:27:57.469Z,12.35
2017-08-12T04:30:25.135Z,14.98
2017-08-12T04:32:53.224Z,13.43
2017-08-12T04:35:20.941Z,17.70
2017-08-12T04:37:49.212Z,15.90
2017-08-12T04:40:16.729Z,14.73
2017-08-12T04:42:44.221Z,15.02
2017-08-12T04:45:11.737Z,17.70
2017-08-12T04:47:39.256Z,14.75
2017-08-12T04:50:07.547Z,15.65
2017-08-12T04:52:35.807Z,17.23
2017-08-12T04:55:04.146Z,15.70
2017-08-12T04:57:31.655Z,17.55
2017-08-12T04:59:59.191Z,15.70
2017-08-12T05:02:26.696Z,18.30
2017-08-12T05:04:54.244Z,16.30
2017-08-12T05:07:21.736Z,17.70
2017-08-12T05:09:49.230Z,20.88
2017-08-12T05:12:16.743Z,18.70
2017-08-12T05:14:44.244Z,17.73
2017-08-12T05:17:11.754Z,16.15
2017-08-12T05:19:39.246Z,17.58
2017-08-12T05:22:06.758Z,15.40
2017-08-12T05:24:34.274Z,15.95
2017-08-12T05:27:01.796Z,18.10
2017-08-12T05:29:29.544Z,16.92
2017-08-12T05:31:57.112Z,16.90
2017-08-12T05:34:24.615Z,17.25
2017-08-12T05:36:52.117Z,16.67
2017-08-12T05:39:19.713Z,17.52
2017-08-12T05:41:47.340Z,16.77
2017-08-12T05:44:14.864Z,18.25
2017-08-12T05:46:42.428Z,16.52
2017-08-12T05:49:10.122Z,16.95
2017-08-12T05:51:37.616Z,16.67
2017-08-12T05:54:05.126Z,16.80
2017-08-12T05:56:32.627Z,16.65
2017-08-12T05:59:00.121Z,17.37
2017-08-12T06:01:28.371Z,17.30
2017-08-12T06:03:55.860Z,16.25
2017-08-12T06:06:24.127Z,15.55
2017-08-12T06:08:52.405Z,16.02
2017-08-12T06:11:20.671Z,16.02
2017-08-12T06:13:48.192Z,15.82
2017-08-12T06:16:15.685Z,15.77
2017-08-12T06:18:43.174Z,18.17
2017-08-12T06:21:10.678Z,16.98
2017-08-12T06:23:38.172Z,18.23
2017-08-12T06:26:05.680Z,17.75
2017-08-12T06:28:33.170Z,15.65
2017-08-12T06:31:00.673Z,16.60
2017-08-12T06:33:28.166Z,18.52
2017-08-12T06:35:55.663Z,18.48
2017-08-12T06:38:23.171Z,17.92
2017-08-12T06:40:50.689Z,16.45
2017-08-12T06:43:18.178Z,18.05
2017-08-12T06:45:45.695Z,17.37
2017-08-12T06:48:13.971Z,20.27
2017-08-12T06:50:41.475Z,19.17
2017-08-12T06:53:08.971Z,17.15
2017-08-12T06:55:36.452Z,16.62
2017-08-12T06:58:03.951Z,17.08
2017-08-12T07:00:31.434Z,16.65
2017-08-12T07:02:58.951Z,15.38
2017-08-12T07:05:26.436Z,16.17
2017-08-12T07:07:53.945Z,15.93
2017-08-12T07:10:21.439Z,15.10
2017-08-12T07:12:48.935Z,18.87
2017-08-12T07:15:17.351Z,14.73
2017-08-12T07:17:44.855Z,14.82
2017-08-12T07:20:12.335Z,15.25
2017-08-12T07:22:40.602Z,15.82
2017-08-12T07:25:08.906Z,16.85
2017-08-12T07:27:36.410Z,12.90
2017-08-12T07:30:03.916Z,15.60
2017-08-12T07:32:31.396Z,14.55
2017-08-12T07:34:58.893Z,14.35
2017-08-12T07:37:26.639Z,15.48
2017-08-12T07:39:54.136Z,14.15
2017-08-12T07:42:22.397Z,15.15
2017-08-12T07:44:49.898Z,13.27
2017-08-12T07:47:17.379Z,17.08
2017-08-12T07:49:44.890Z,12.77
2017-08-12T07:52:13.148Z,13.40
2017-08-12T07:54:40.658Z,15.05
2017-08-12T07:57:08.156Z,19.70
2017-08-12T07:59:35.646Z,14.82
2017-08-12T08:02:03.150Z,19.12
2017-08-12T08:04:30.664Z,16.98
2017-08-12T08:06:58.180Z,15.60
2017-08-12T08:09:27.906Z,17.67
2017-08-12T08:11:56.184Z,17.10
2017-08-12T08:14:23.776Z,15.77
2017-08-12T08:16:51.271Z,20.45
2017-08-12T08:19:18.760Z,19.45
2017-08-12T08:21:47.036Z,17.17
2017-08-12T08:24:15.468Z,17.17
2017-08-12T08:26:42.988Z,17.83
2017-08-12T08:29:10.487Z,17.60
2017-08-12T08:31:37.991Z,16.85
2017-08-12T08:34:06.274Z,19.02
2017-08-12T08:36:34.772Z,18.23
2017-08-12T08:39:02.293Z,15.18
2017-08-12T08:41:29.941Z,17.15
2017-08-12T08:43:57.522Z,14.80
2017-08-12T08:46:25.811Z,17.92
2017-08-12T08:48:54.102Z,16.23
2017-08-12T08:51:21.601Z,16.37
2017-08-12T08:53:49.119Z,14.20
2017-08-12T08:56:16.627Z,17.27
2017-08-12T08:58:44.136Z,15.27
2017-08-12T09:01:11.671Z,14.00
2017-08-12T09:03:39.995Z,14.13
2017-08-12T09:06:07.516Z,14.82
2017-08-12T09:08:35.034Z,14.45
2017-08-12T09:11:02.559Z,14.68
2017-08-12T09:13:30.065Z,11.52
2017-08-12T09:15:57.581Z,13.62
2017-08-12T09:18:25.081Z,11.65
2017-08-12T09:20:52.606Z,12.77
2017-08-12T09:23:20.114Z,11.30
2017-08-12T09:25:48.401Z,12.85
2017-08-12T09:28:15.904Z,11.52
2017-08-12T09:30:43.416Z,12.65
2017-08-12T09:33:11.673Z,11.85
2017-08-12T09:35:39.195Z,14.35
2017-08-12T09:38:06.865Z,16.20
2017-08-12T09:40:34.395Z,18.48
2017-08-12T09:43:01.897Z,19.92
2017-08-12T09:45:29.400Z,20.40
2017-08-12T09:47:56.935Z,22.27
2017-08-12T09:50:25.195Z,28.95
2017-08-12T09:52:52.711Z,36.15
2017-08-12T09:55:20.211Z,34.67
2017-08-12T09:57:47.723Z,44.83
2017-08-12T10:00:15.216Z,36.88
2017-08-12T10:02:42.764Z,38.33
2017-08-12T10:05:10.296Z,38.22
2017-08-12T10:07:37.802Z,45.65
2017-08-12T10:10:05.293Z,37.08
2017-08-12T10:12:32.820Z,36.55
2017-08-12T10:15:00.315Z,31.87
2017-08-12T10:17:27.856Z,36.00
2017-08-12T10:19:56.118Z,42.80
2017-08-12T10:22:24.403Z,44.35
2017-08-12T10:24:51.991Z,40.05
2017-08-12T10:27:20.395Z,33.67
2017-08-12T10:29:47.927Z,33.92
2017-08-12T10:32:15.441Z,33.58
2017-08-12T10:34:42.947Z,34.80
2017-08-12T10:37:10.542Z,37.05
2017-08-12T10:39:38.080Z,39.63
2017-08-12T10:42:05.627Z,35.10
2017-08-12T10:44:33.151Z,33.90
2017-08-12T10:47:01.412Z,28.67
2017-08-12T10:49:28.915Z,31.65
2017-08-12T10:51:56.439Z,30.02
2017-08-12T10:54:25.913Z,28.55
2017-08-12T10:56:57.175Z,28.90
2017-08-12T10:59:24.735Z,26.55
2017-08-12T11:01:52.247Z,24.92
2017-08-12T11:04:19.761Z,24.77
2017-08-12T11:06:47.268Z,24.42
2017-08-12T11:09:18.240Z,23.45
2017-08-12T11:11:46.729Z,24.55
2017-08-12T11:14:14.227Z,24.25
2017-08-12T11:16:41.739Z,22.75
2017-08-12T11:19:09.232Z,22.00
2017-08-12T11:21:37.680Z,21.12
2017-08-12T11:24:05.218Z,22.90
2017-08-12T11:26:32.730Z,20.33
2017-08-12T11:29:00.220Z,21.87
2017-08-12T11:31:27.757Z,22.70
2017-08-12T11:33:55.316Z,22.60
2017-08-12T11:36:22.816Z,26.40
2017-08-12T11:38:50.336Z,18.65
2017-08-12T11:41:17.844Z,20.35
2017-08-12T11:43:45.360Z,19.98
2017-08-12T11:46:12.855Z,19.75
2017-08-12T11:48:40.377Z,19.67
2017-08-12T11:51:07.923Z,17.35
2017-08-12T11:53:35.461Z,17.48
2017-08-12T11:56:02.959Z,16.30
2017-08-12T11:58:30.476Z,16.48
2017-08-12T12:00:58.771Z,14.35
2017-08-12T12:03:26.308Z,14.85
2017-08-12T12:05:53.811Z,15.02
2017-08-12T12:08:21.308Z,14.10
2017-08-12T12:10:49.777Z,12.50
2017-08-12T12:13:17.278Z,11.45
2017-08-12T12:15:44.800Z,10.32
2017-08-12T12:18:12.307Z,11.20
2017-08-12T12:20:39.813Z,11.73
2017-08-12T12:23:07.318Z,11.12
2017-08-12T12:25:34.827Z,9.90
2017-08-12T12:28:02.339Z,10.20
2017-08-12T12:30:29.878Z,10.73
2017-08-12T12:32:57.375Z,10.18
2017-08-12T12:35:24.894Z,10.30
2017-08-12T12:37:52.402Z,10.93
2017-08-12T12:40:19.923Z,9.52
2017-08-12T12:42:47.432Z,9.65
2017-08-12T12:45:14.931Z,8.70
2017-08-12T12:47:42.456Z,10.00
2017-08-12T12:50:09.946Z,8.93
2017-08-12T12:52:37.469Z,9.43
2017-08-12T12:55:04.963Z,8.13
2017-08-12T12:57:32.471Z,7.90
2017-08-12T12:59:59.964Z,6.95
2017-08-12T13:02:28.227Z,6.87
2017-08-12T13:04:55.720Z,6.07
2017-08-12T13:07:23.232Z,6.62
2017-08-12T13:09:50.768Z,6.95
2017-08-12T13:12:18.264Z,6.95
2017-08-12T13:14:46.536Z,7.18
2017-08-12T13:17:14.808Z,9.90
2017-08-12T13:19:43.083Z,8.70
2017-08-12T13:22:11.343Z,7.55
2017-08-12T13:24:38.839Z,8.52
2017-08-12T13:27:06.343Z,5.97
2017-08-12T13:29:33.846Z,4.78
2017-08-12T13:32:01.334Z,5.20
2017-08-12T13:34:28.838Z,4.55
2017-08-12T13:36:56.334Z,4.25
2017-08-12T13:39:23.861Z,3.40
2017-08-12T13:41:52.134Z,3.45
2017-08-12T13:44:19.643Z,3.22
2017-08-12T13:46:47.134Z,3.25
2017-08-12T13:49:14.672Z,4.57
2017-08-12T13:51:42.179Z,2.80
2017-08-12T13:54:09.671Z,2.33
2017-08-12T13:56:37.200Z,2.92
2017-08-12T13:59:04.683Z,2.62
2017-08-12T14:01:32.264Z,2.80
2017-08-12T14:03:59.756Z,2.45
2017-08-12T14:06:27.257Z,2.85
2017-08-12T14:08:54.740Z,2.85
2017-08-12T14:11:22.238Z,2.60
2017-08-12T14:13:49.769Z,1.87
2017-08-12T14:16:17.276Z,2.37
2017-08-12T14:18:44.779Z,2.80
2017-08-12T14:21:12.277Z,2.40
2017-08-12T14:23:40.551Z,2.97
2017-08-12T14:26:08.061Z,2.53
2017-08-12T14:28:35.583Z,2.70
2017-08-12T14:31:03.853Z,3.40
2017-08-12T14:33:32.119Z,2.67
2017-08-12T14:36:00.384Z,3.80
2017-08-12T14:38:27.883Z,3.75
2017-08-12T14:40:55.385Z,2.90
2017-08-12T14:43:22.896Z,3.90
2017-08-12T14:45:50.388Z,4.90
2017-08-12T14:48:17.894Z,3.40
2017-08-12T14:50:45.393Z,4.40
2017-08-12T14:53:12.889Z,2.87
2017-08-12T14:55:40.402Z,6.00
2017-08-12T14:58:07.909Z,3.20
2017-08-12T15:00:36.178Z,3.00
2017-08-12T15:03:03.684Z,4.22
2017-08-12T15:05:31.183Z,3.50
2017-08-12T15:07:58.754Z,4.87
2017-08-12T15:10:26.255Z,2.53
2017-08-12T15:12:53.747Z,2.50
2017-08-12T15:15:21.257Z,2.75
2017-08-12T15:17:48.761Z,2.60
2017-08-12T15:20:16.276Z,2.70
2017-08-12T15:22:43.766Z,2.87
2017-08-12T15:25:11.278Z,3.00
2017-08-12T15:27:38.755Z,2.75
2017-08-12T15:30:06.254Z,2.60
2017-08-12T15:32:33.755Z,4.03
2017-08-12T15:35:01.242Z,5.68
2017-08-12T15:37:28.758Z,3.10
2017-08-12T15:39:56.236Z,3.00
2017-08-12T15:42:23.739Z,3.20
2017-08-12T15:44:51.226Z,2.00
2017-08-12T15:47:18.743Z,2.62
2017-08-12T15:49:46.239Z,3.10
2017-08-12T15:52:13.745Z,2.62
2017-08-12T15:54:41.240Z,2.67
2017-08-12T15:57:08.743Z,4.80
2017-08-12T15:59:36.235Z,3.30
2017-08-12T16:02:03.738Z,2.72
2017-08-12T16:04:31.216Z,3.12
2017-08-12T16:06:58.711Z,4.97
2017-08-12T16:09:26.240Z,4.03
2017-08-12T16:11:53.717Z,4.30
2017-08-12T16:14:21.216Z,4.40
2017-08-12T16:16:48.708Z,4.93
2017-08-12T16:19:16.221Z,4.35
2017-08-12T16:21:43.716Z,6.20
2017-08-12T16:24:11.223Z,4.73
2017-08-12T16:26:38.704Z,4.10
2017-08-12T16:29:06.979Z,5.65
2017-08-12T16:31:34.456Z,4.45
2017-08-12T16:34:01.979Z,4.62
2017-08-12T16:36:29.464Z,6.25
2017-08-12T16:38:57.720Z,5.75
2017-08-12T16:41:25.229Z,5.28
2017-08-12T16:43:52.729Z,3.97
2017-08-12T16:46:20.227Z,3.10
2017-08-12T16:48:47.705Z,2.25
2017-08-12T16:51:15.203Z,2.67
2017-08-12T16:53:42.680Z,3.12
2017-08-12T16:56:10.943Z,2.17
2017-08-12T16:58:38.428Z,2.40
2017-08-12T17:01:05.926Z,2.67
2017-08-12T17:03:33.406Z,2.60
2017-08-12T17:06:00.897Z,2.20
2017-08-12T17:08:29.155Z,3.35
2017-08-12T17:10:56.643Z,2.95
2017-08-12T17:13:24.139Z,3.37
2017-08-12T17:15:51.633Z,5.43
2017-08-12T17:18:19.903Z,4.53
2017-08-12T17:20:47.431Z,3.20
2017-08-12T17:23:14.926Z,3.70
2017-08-12T17:25:43.172Z,3.97
2017-08-12T17:28:10.667Z,3.90
2017-08-12T17:30:38.167Z,5.28
2017-08-12T17:33:05.650Z,4.30
2017-08-12T17:35:33.143Z,4.25
2017-08-12T17:38:01.395Z,5.53
2017-08-12T17:40:28.909Z,4.53
2017-08-12T17:42:56.408Z,5.90
2017-08-12T17:45:23.920Z,6.32
2017-08-12T17:47:51.417Z,7.87
2017-08-12T17:50:18.923Z,7.10
2017-08-12T17:52:46.414Z,6.05
2017-08-12T17:55:14.072Z,9.13
2017-08-12T17:57:41.664Z,7.05
2017-08-12T18:00:09.159Z,6.90
2017-08-12T18:02:36.654Z,7.32
2017-08-12T18:05:04.145Z,6.60
2017-08-12T18:07:31.642Z,6.97
2017-08-12T18:09:59.134Z,7.62
2017-08-12T18:12:26.639Z,7.43
2017-08-12T18:14:54.904Z,7.40
2017-08-12T18:17:22.424Z,7.30
2017-08-12T18:19:49.928Z,6.93
2017-08-12T18:22:17.411Z,6.00
2017-08-12T18:24:44.913Z,5.95
2017-08-12T18:27:12.393Z,4.93
2017-08-12T18:29:40.654Z,5.35
2017-08-12T18:32:08.151Z,6.72
2017-08-12T18:34:35.726Z,6.37
2017-08-12T18:37:03.237Z,6.40
2017-08-12T18:39:30.743Z,4.30
2017-08-12T18:42:00.166Z,6.05
2017-08-12T18:44:27.683Z,4.05
2017-08-12T18:46:55.173Z,4.00
2017-08-12T18:49:22.671Z,5.18
2017-08-12T18:51:50.923Z,4.32
2017-08-12T18:54:18.437Z,5.25
2017-08-12T18:56:45.913Z,3.95
2017-08-12T18:59:13.407Z,4.00
2017-08-12T19:01:40.938Z,5.28
2017-08-12T19:04:08.482Z,3.80
2017-08-12T19:06:35.984Z,3.80
2017-08-12T19:09:03.519Z,4.87
2017-08-12T19:11:31.011Z,5.32
2017-08-12T19:13:58.497Z,4.50
2017-08-12T19:16:25.990Z,5.10
2017-08-12T19:18:53.470Z,6.68
2017-08-12T19:21:20.960Z,4.80
2017-08-12T19:23:48.477Z,4.95
2017-08-12T19:26:15.960Z,4.40
2017-08-12T19:28:43.455Z,5.15
2017-08-12T19:31:10.940Z,5.93
2017-08-12T19:33:38.434Z,10.25
2017-08-12T19:36:05.935Z,5.70
2017-08-12T19:38:33.427Z,5.47
2017-08-12T19:41:00.923Z,6.85
2017-08-12T19:43:28.444Z,7.10
2017-08-12T19:45:55.932Z,8.52
2017-08-12T19:48:23.440Z,7.20
2017-08-12T19:50:50.935Z,6.47
2017-08-12T19:53:19.199Z,9.38
2017-08-12T19:55:46.693Z,8.40
2017-08-12T19:58:14.218Z,6.40
2017-08-12T20:00:42.484Z,7.15
2017-08-12T20:03:09.989Z,8.65
2017-08-12T20:05:37.478Z,6.57
2017-08-12T20:08:04.963Z,6.03
2017-08-12T20:10:32.483Z,6.87
2017-08-12T20:12:59.972Z,6.32
2017-08-12T20:15:27.468Z,6.45
2017-08-12T20:17:54.968Z,6.68
2017-08-12T20:20:22.471Z,6.75
2017-08-12T20:22:51.720Z,7.70
2017-08-12T20:25:19.229Z,8.70
2017-08-12T20:27:46.737Z,6.18
2017-08-12T20:30:14.236Z,6.93
2017-08-12T20:32:42.491Z,8.02
2017-08-12T20:35:09.992Z,11.10
2017-08-12T20:37:37.520Z,6.68
2017-08-12T20:40:05.021Z,6.57
2017-08-12T20:42:32.547Z,7.20
2017-08-12T20:45:00.795Z,7.50
2017-08-12T20:47:28.336Z,6.47
2017-08-12T20:49:55.826Z,8.95
2017-08-12T20:52:23.327Z,9.98
2017-08-12T20:54:50.827Z,8.55
2017-08-12T20:57:18.328Z,6.47
2017-08-12T20:59:47.770Z,8.20
2017-08-12T21:02:15.276Z,7.28
2017-08-12T21:04:43.541Z,6.87
2017-08-12T21:07:11.064Z,8.48
2017-08-12T21:09:38.568Z,5.95
2017-08-12T21:12:06.834Z,7.20
2017-08-12T21:14:34.349Z,5.37
2017-08-12T21:17:01.837Z,4.28
2017-08-12T21:19:29.330Z,4.57
2017-08-12T21:21:56.818Z,4.70
2017-08-12T21:24:24.331Z,5.50
2017-08-12T21:26:52.587Z,5.20
2017-08-12T21:29:23.722Z,6.55
2017-08-12T21:31:51.215Z,4.78
2017-08-12T21:34:18.757Z,3.75
2017-08-12T21:36:46.264Z,5.00
2017-08-12T21:39:13.757Z,3.53
2017-08-12T21:41:41.276Z,2.92
2017-08-12T21:44:08.786Z,7.10
2017-08-12T21:46:37.057Z,3.90
2017-08-12T21:49:04.547Z,3.65
2017-08-12T21:51:32.102Z,3.55
2017-08-12T21:53:59.622Z,6.20
2017-08-12T21:56:27.125Z,4.00
2017-08-12T21:58:54.612Z,4.68
2017-08-12T22:01:22.113Z,3.55
2017-08-12T22:03:49.601Z,5.37
2017-08-12T22:06:19.220Z,3.28
2017-08-12T22:08:46.707Z,3.85
2017-08-12T22:11:14.210Z,4.80
2017-08-12T22:13:41.719Z,5.47
2017-08-12T22:16:09.197Z,6.25
2017-08-12T22:18:36.720Z,3.20
2017-08-12T22:21:04.223Z,3.42
2017-08-12T22:23:31.724Z,4.55
2017-08-12T22:25:59.216Z,6.50
2017-08-12T22:28:26.756Z,4.35
2017-08-12T22:30:54.263Z,4.40
2017-08-12T22:33:21.940Z,5.25
2017-08-12T22:35:49.426Z,4.25
2017-08-12T22:38:16.943Z,3.80
2017-08-12T22:40:44.468Z,4.32
2017-08-12T22:43:12.032Z,5.15
2017-08-12T22:45:39.541Z,4.25
2017-08-12T22:48:07.046Z,4.70
2017-08-12T22:50:34.600Z,5.12
2017-08-12T22:53:02.107Z,6.97
2017-08-12T22:55:29.699Z,11.57
2017-08-12T22:57:57.189Z,4.40
2017-08-12T23:00:24.684Z,7.47
2017-08-12T23:02:52.162Z,5.20
2017-08-12T23:05:19.664Z,6.68
2017-08-12T23:07:47.152Z,8.80
2017-08-12T23:10:14.685Z,8.43
2017-08-12T23:12:42.230Z,10.75
2017-08-12T23:15:09.716Z,7.40
2017-08-12T23:17:37.244Z,6.55
2017-08-12T23:20:04.727Z,7.72
2017-08-12T23:22:32.244Z,8.52
2017-08-12T23:24:59.735Z,8.77
2017-08-12T23:27:28.008Z,13.27
2017-08-12T23:29:55.503Z,9.70
2017-08-12T23:32:23.013Z,12.98
2017-08-12T23:34:50.495Z,13.32
2017-08-12T23:37:18.766Z,8.70
2017-08-12T23:39:47.021Z,8.43
2017-08-12T23:42:14.518Z,8.43
2017-08-12T23:44:43.817Z,9.07
2017-08-12T23:47:11.358Z,7.57
2017-08-12T23:49:38.873Z,11.02
2017-08-12T23:52:06.415Z,7.68
2017-08-12T23:54:33.954Z,10.48
2017-08-12T23:57:01.460Z,8.45
2017-08-12T23:59:29.005Z,8.50
